Time;durP1;ratioP1;P1;durP2;ratioP2;P2;SDS_P1;SDS_P2;PMS_P1;PMS_P2;Temp;Humidity;BMP_temperature;BMP_pressure;BME280_temperature;BME280_humidity;BME280_pressure;Samples;Min_cycle;Max_cycle;Signal;HPM_P1;HPM_P2
2022/03/26 00:05:30;;;;;;;6.28;2.75;;;;;;;7.28;47.52;101602.41;18303411;32;20108;-63
2022/03/26 00:15:35;;;;;;;12.27;3.17;;;;;;;7.22;46.86;101608.31;18304017;32;20455;-63
2022/03/26 00:25:38;;;;;;;4.97;2.75;;;;;;;7.32;46.84;101599.06;18303539;32;20151;-63
2022/03/26 00:35:43;;;;;;;6.78;3.15;;;;;;;6.98;47.85;101605.81;18303317;32;20116;-63
2022/03/26 00:45:46;;;;;;;6.22;3.70;;;;;;;6.80;49.01;101610.44;18302656;32;20112;-63
2022/03/26 00:55:50;;;;;;;4.87;2.70;;;;;;;6.44;49.77;101598.00;18301961;32;20420;-63
2022/03/26 01:05:54;;;;;;;6.82;2.55;;;;;;;6.47;49.98;101605.91;18302455;32;20097;-63
2022/03/26 01:15:58;;;;;;;7.30;3.30;;;;;;;6.36;50.57;101599.47;18305065;32;20723;-63
2022/03/26 01:26:02;;;;;;;5.95;3.50;;;;;;;6.08;50.95;101603.69;18308782;32;20137;-63
2022/03/26 01:36:08;;;;;;;3.50;2.10;;;;;;;5.88;51.74;101593.44;18308569;32;20124;-63
2022/03/26 01:46:12;;;;;;;8.32;3.78;;;;;;;5.87;51.64;101580.44;18307886;32;20141;-63
2022/03/26 01:56:19;;;;;;;8.98;4.43;;;;;;;5.74;52.36;101580.00;18308005;32;20190;-63
2022/03/26 02:06:25;;;;;;;3.05;2.53;;;;;;;5.67;52.92;101570.22;18308934;32;20093;-63
2022/03/26 02:16:30;;;;;;;5.40;2.83;;;;;;;5.31;53.98;101583.53;18307470;32;20513;-63
2022/03/26 02:26:35;;;;;;;6.12;3.58;;;;;;;5.38;53.96;101582.97;18307483;32;20126;-63
2022/03/26 02:36:38;;;;;;;6.30;3.47;;;;;;;5.52;53.80;101568.81;18306956;32;20549;-63
2022/03/26 02:46:45;;;;;;;6.97;3.55;;;;;;;5.69;53.30;101572.06;18307539;32;20108;-63
2022/03/26 02:56:49;;;;;;;6.78;2.85;;;;;;;5.21;55.31;101587.47;18306660;32;20208;-63
2022/03/26 03:06:54;;;;;;;3.22;2.35;;;;;;;5.24;55.48;101580.72;18306263;32;20111;-63
2022/03/26 03:16:57;;;;;;;9.20;3.53;;;;;;;5.24;54.76;101575.53;18305824;32;20112;-63
2022/03/26 03:27:02;;;;;;;10.48;4.55;;;;;;;5.34;55.62;101566.41;18305288;32;20430;-63
2022/03/26 03:37:10;;;;;;;6.95;2.75;;;;;;;5.30;55.81;101559.34;18305233;32;20104;-63
2022/03/26 03:47:14;;;;;;;5.78;2.90;;;;;;;5.07;56.35;101558.44;18304869;32;20089;-63
2022/03/26 03:57:18;;;;;;;2.92;2.55;;;;;;;4.91;56.84;101547.53;18304569;32;20109;-63
2022/03/26 04:07:23;;;;;;;5.55;3.35;;;;;;;4.79;57.07;101562.53;18304362;32;20090;-63
2022/03/26 04:17:26;;;;;;;2.50;1.65;;;;;;;4.42;58.63;101560.22;18304136;32;20106;-63
2022/03/26 04:27:31;;;;;;;2.47;2.03;;;;;;;4.42;58.33;101561.91;18303509;32;20113;-63
2022/03/26 04:37:35;;;;;;;3.78;2.80;;;;;;;4.08;59.43;101566.53;18303039;32;20442;-63
2022/03/26 04:47:40;;;;;;;7.95;3.95;;;;;;;4.09;59.33;101577.78;18301944;32;20465;-63
2022/03/26 04:57:44;;;;;;;3.25;2.87;;;;;;;4.14;57.87;101573.66;18302320;32;20419;-63
2022/03/26 05:07:50;;;;;;;5.12;2.50;;;;;;;4.01;59.01;101580.00;18302386;32;20432;-63
2022/03/26 05:17:54;;;;;;;4.78;2.33;;;;;;;3.93;58.66;101582.25;18300962;32;20085;-63
2022/03/26 05:27:59;;;;;;;4.20;2.22;;;;;;;4.02;57.80;101592.09;18299588;32;20112;-63
2022/03/26 05:38:02;;;;;;;2.08;1.45;;;;;;;4.67;57.04;101602.59;18299360;32;20726;-63
2022/03/26 05:48:08;;;;;;;9.07;2.55;;;;;;;5.17;56.59;101606.31;18299065;32;20094;-63
2022/03/26 05:58:12;;;;;;;6.90;2.97;;;;;;;7.91;49.94;101596.47;18298449;32;20141;-64
2022/03/26 06:08:16;;;;;;;6.60;3.55;;;;;;;10.48;44.03;101599.69;18308623;32;20097;-64
2022/03/26 06:18:20;;;;;;;7.00;2.92;;;;;;;14.80;36.61;101593.75;18307595;32;20101;-65
2022/03/26 06:28:24;;;;;;;8.70;3.62;;;;;;;17.05;31.87;101592.59;18306985;32;20097;-65
2022/03/26 06:38:31;;;;;;;7.85;3.25;;;;;;;19.18;28.90;101596.63;18306925;32;20098;-65
2022/03/26 06:48:36;;;;;;;5.75;2.85;;;;;;;21.03;25.85;101588.91;18306662;32;20090;-65
2022/03/26 06:58:39;;;;;;;6.20;2.92;;;;;;;22.02;23.87;101595.84;18303116;32;20089;-66
2022/03/26 07:08:44;;;;;;;8.63;3.10;;;;;;;22.33;23.04;101600.16;18305423;32;20100;-65
2022/03/26 07:18:47;;;;;;;5.18;2.08;;;;;;;18.92;27.62;101597.06;18304452;32;20082;-65
2022/03/26 07:28:52;;;;;;;7.20;2.30;;;;;;;19.26;27.53;101594.72;18300314;32;20189;-68
2022/03/26 07:38:55;;;;;;;5.28;2.03;;;;;;;20.21;24.84;101602.44;18324638;32;20386;-66
2022/03/26 07:49:00;;;;;;;4.40;1.87;;;;;;;20.47;24.60;101603.59;18365447;32;20101;-66
2022/03/26 07:59:03;;;;;;;4.47;2.12;;;;;;;21.80;22.98;101590.31;18361322;32;20092;-67
2022/03/26 08:09:08;;;;;;;6.20;2.12;;;;;;;21.87;22.48;101581.22;18366295;32;20116;-66
2022/03/26 08:19:11;;;;;;;4.07;2.05;;;;;;;20.87;24.04;101584.03;18366534;32;20140;-65
2022/03/26 08:29:17;;;;;;;4.82;2.10;;;;;;;19.56;26.29;101583.50;18363227;32;20101;-65
2022/03/26 08:39:25;;;;;;;4.90;1.70;;;;;;;19.59;26.79;101587.88;18365946;32;20464;-65
2022/03/26 08:49:30;;;;;;;2.20;1.23;;;;;;;19.68;25.48;101590.31;18365098;32;20124;-65
2022/03/26 08:59:33;;;;;;;4.75;2.05;;;;;;;19.55;26.13;101589.72;18340703;32;20426;-66
2022/03/26 09:09:38;;;;;;;7.45;2.78;;;;;;;19.47;26.15;101589.00;18355762;32;20520;-66
2022/03/26 09:19:41;;;;;;;6.80;2.65;;;;;;;20.22;25.89;101582.97;18332165;32;20144;-66
2022/03/26 09:29:46;;;;;;;6.10;1.75;;;;;;;21.48;23.55;101566.41;18334663;32;20094;-66
2022/03/26 09:39:49;;;;;;;5.07;1.87;;;;;;;22.03;23.04;101560.34;18307497;32;20113;-66
2022/03/26 09:49:54;;;;;;;5.68;2.25;;;;;;;24.96;19.40;101552.97;18314008;32;20374;-66
2022/03/26 09:59:57;;;;;;;4.12;2.17;;;;;;;29.24;14.50;101524.03;18302459;32;20098;-67
2022/03/26 10:10:03;;;;;;;6.15;2.47;;;;;;;29.94;13.88;101516.84;18299928;32;20120;-67
2022/03/26 10:20:08;;;;;;;7.55;2.60;;;;;;;29.97;13.90;101503.16;18311480;32;20108;-66
2022/03/26 10:30:14;;;;;;;6.37;2.25;;;;;;;28.04;13.87;101501.66;18307408;32;20351;-66
2022/03/26 10:40:22;;;;;;;3.78;1.50;;;;;;;28.30;13.74;101491.22;18303697;32;20089;-66
2022/03/26 10:50:29;;;;;;;5.97;1.87;;;;;;;29.89;11.29;101464.16;18305411;32;20093;-66
2022/03/26 11:00:33;;;;;;;7.68;2.33;;;;;;;29.26;11.00;101462.94;18303954;32;20098;-66
2022/03/26 11:10:38;;;;;;;6.47;2.60;;;;;;;27.44;13.29;101458.56;18303854;32;20148;-66
2022/03/26 11:21:23;;;;;;;9.55;3.20;;;;;;;24.93;14.87;101448.94;18302233;32;20094;-67
2022/03/26 11:31:34;;;;;;;9.40;3.35;;;;;;;23.53;15.64;101458.38;18283212;32;20192;-66
2022/03/26 11:41:39;;;;;;;8.32;3.17;;;;;;;23.87;14.91;101434.78;18303957;32;20116;-66
2022/03/26 11:51:52;;;;;;;6.45;3.05;;;;;;;23.42;15.58;101424.16;18303288;32;20097;-66
2022/03/26 12:01:55;;;;;;;9.00;3.15;;;;;;;23.36;15.95;101407.53;18303398;32;20458;-65
2022/03/26 12:12:17;;;;;;;9.15;2.75;;;;;;;22.41;17.49;101379.13;18302049;32;20112;-65
2022/03/26 12:22:26;;;;;;;9.30;3.25;;;;;;;22.86;16.81;101391.69;18296526;32;158838;-66
2022/03/26 12:32:32;;;;;;;9.02;3.03;;;;;;;22.98;15.65;101373.50;18303897;32;20120;-65
2022/03/26 12:42:36;;;;;;;10.75;4.03;;;;;;;22.52;14.97;101376.09;18302638;32;20422;-65
2022/03/26 12:52:41;;;;;;;6.15;2.83;;;;;;;22.69;15.69;101363.03;18302818;32;20110;-65
2022/03/26 13:02:47;;;;;;;8.95;3.10;;;;;;;22.70;14.63;101342.63;18300976;32;20093;-65
2022/03/26 13:12:52;;;;;;;9.43;4.07;;;;;;;22.53;16.22;101337.97;18304780;32;20094;-65
2022/03/26 13:22:58;;;;;;;11.65;4.05;;;;;;;22.34;16.01;101324.44;18308354;32;20112;-66
2022/03/26 13:33:04;;;;;;;11.25;3.75;;;;;;;22.73;16.66;101313.22;18308247;32;20116;-65
2022/03/26 13:43:10;;;;;;;11.25;3.22;;;;;;;22.91;15.87;101292.13;18307520;32;20100;-66
2022/03/26 13:53:19;;;;;;;8.02;3.65;;;;;;;22.49;15.45;101297.28;18305359;32;20125;-65
2022/03/26 14:03:25;;;;;;;8.77;3.35;;;;;;;22.85;15.59;101291.44;18302524;32;20086;-65
2022/03/26 14:13:30;;;;;;;8.20;3.05;;;;;;;22.04;15.87;101270.53;18303662;32;20097;-66
2022/03/26 14:23:33;;;;;;;14.82;4.45;;;;;;;21.93;15.20;101266.53;18304310;32;20104;-65
2022/03/26 14:33:38;;;;;;;11.38;3.67;;;;;;;21.73;15.53;101261.00;18305283;32;20137;-66
2022/03/26 14:43:41;;;;;;;11.38;4.30;;;;;;;21.87;16.41;101252.53;18302562;32;20120;-65
2022/03/26 14:53:46;;;;;;;7.90;2.95;;;;;;;21.41;17.03;101233.75;18305944;32;20136;-65
2022/03/26 15:03:49;;;;;;;8.60;3.42;;;;;;;21.35;15.36;101240.13;18307329;32;20120;-65
2022/03/26 15:13:53;;;;;;;8.40;3.55;;;;;;;21.05;15.59;101232.28;18304886;32;20347;-64
2022/03/26 15:23:56;;;;;;;9.23;3.90;;;;;;;20.89;16.09;101237.22;18305261;32;20137;-65
2022/03/26 15:34:01;;;;;;;12.40;5.28;;;;;;;21.26;16.41;101229.81;18303553;32;20108;-65
2022/03/26 15:44:05;;;;;;;8.10;3.35;;;;;;;21.01;16.43;101240.41;18305296;32;20105;-65
2022/03/26 15:54:10;;;;;;;14.63;5.72;;;;;;;20.37;16.64;101248.50;18304705;32;20097;-65
2022/03/26 16:04:13;;;;;;;8.10;3.25;;;;;;;20.19;16.61;101251.69;18305026;32;20090;-65
2022/03/26 16:14:24;;;;;;;6.40;3.03;;;;;;;19.58;16.77;101255.94;18304354;32;20143;-65
2022/03/26 16:24:27;;;;;;;6.83;3.00;;;;;;;19.62;16.74;101252.34;18303925;32;20188;-65
2022/03/26 16:34:32;;;;;;;10.68;3.67;;;;;;;19.83;17.33;101261.47;18303558;32;20109;-65
2022/03/26 16:44:35;;;;;;;8.43;3.35;;;;;;;19.55;18.07;101251.63;18302103;32;20115;-65
2022/03/26 16:54:40;;;;;;;18.35;3.10;;;;;;;18.92;18.47;101256.66;18302456;32;20112;-65
2022/03/26 17:04:43;;;;;;;14.50;5.50;;;;;;;18.81;18.85;101256.91;18303283;32;20090;-65
2022/03/26 17:14:48;;;;;;;11.05;2.83;;;;;;;18.59;19.10;101259.19;18301698;32;20093;-65
2022/03/26 17:24:51;;;;;;;7.37;2.97;;;;;;;18.23;19.56;101254.63;18300732;32;20141;-65
2022/03/26 17:34:56;;;;;;;8.90;3.37;;;;;;;18.13;19.78;101253.97;18300478;32;20156;-65
2022/03/26 17:44:59;;;;;;;7.20;2.92;;;;;;;17.99;20.05;101251.56;18299788;32;20120;-65
2022/03/26 17:55:04;;;;;;;7.32;3.35;;;;;;;17.83;20.37;101264.22;18301120;32;20116;-65
2022/03/26 18:05:08;;;;;;;8.48;3.53;;;;;;;17.73;20.74;101270.53;18308234;32;20446;-65
2022/03/26 18:15:13;;;;;;;10.32;3.58;;;;;;;17.46;21.25;101281.56;18307776;32;20102;-65
2022/03/26 18:25:17;;;;;;;6.82;2.78;;;;;;;17.19;21.83;101291.66;18307193;32;20109;-65
2022/03/26 18:35:22;;;;;;;8.85;2.80;;;;;;;17.16;21.88;101294.34;18307166;32;20094;-65
2022/03/26 18:45:25;;;;;;;6.53;3.22;;;;;;;17.10;22.08;101299.72;18307243;32;20113;-65
2022/03/26 18:55:30;;;;;;;5.70;2.55;;;;;;;16.80;22.86;101299.25;18305145;32;20116;-65
2022/03/26 19:05:34;;;;;;;4.30;2.47;;;;;;;16.82;23.17;101301.87;18305120;32;20109;-65
2022/03/26 19:15:39;;;;;;;8.75;3.10;;;;;;;16.68;23.51;101302.06;18302942;32;20066;-66
2022/03/26 19:25:42;;;;;;;7.20;3.10;;;;;;;16.44;23.59;101304.97;18299044;32;20112;-65
2022/03/26 19:35:47;;;;;;;7.75;3.05;;;;;;;15.94;24.80;101305.53;18299619;32;20140;-65
2022/03/26 19:45:50;;;;;;;8.68;3.22;;;;;;;15.68;25.31;101306.62;18301777;32;20121;-65
2022/03/26 19:55:56;;;;;;;7.97;3.37;;;;;;;15.07;26.48;101323.75;18304658;32;20152;-65
2022/03/26 20:05:59;;;;;;;6.78;2.90;;;;;;;15.09;27.13;101320.22;18304269;32;20133;-66
2022/03/26 20:26:21;;;;;;;7.93;3.35;;;;;;;14.47;28.15;101331.00;18296046;32;20122;-66
2022/03/26 20:36:27;;;;;;;8.73;3.53;;;;;;;14.52;28.23;101331.87;18324793;32;20120;-66
2022/03/26 20:46:31;;;;;;;15.32;5.72;;;;;;;14.62;28.40;101334.47;18331847;32;20085;-65
2022/03/26 20:56:38;;;;;;;9.30;3.65;;;;;;;14.12;29.62;101338.09;18329978;32;20093;-65
2022/03/26 21:06:42;;;;;;;8.18;3.37;;;;;;;13.68;30.23;101339.91;18293615;32;20104;-66
2022/03/26 21:16:46;;;;;;;6.45;3.08;;;;;;;13.21;31.46;101338.94;18294488;32;20120;-65
2022/03/26 21:26:50;;;;;;;5.28;2.50;;;;;;;12.82;31.71;101340.56;18296692;32;20108;-65
2022/03/26 21:36:55;;;;;;;6.50;2.40;;;;;;;13.26;32.59;101347.69;18308381;32;20100;-65
2022/03/26 21:46:58;;;;;;;8.45;2.70;;;;;;;14.28;33.62;101352.06;18307166;32;20133;-65
2022/03/26 21:57:03;;;;;;;8.65;3.40;;;;;;;15.45;31.80;101342.75;18308061;32;20104;-65
2022/03/26 22:07:06;;;;;;;8.07;3.08;;;;;;;15.98;31.33;101345.84;18308055;32;20686;-65
2022/03/26 22:17:11;;;;;;;9.63;3.95;;;;;;;16.24;30.82;101344.72;18304595;32;20383;-66
2022/03/26 22:27:15;;;;;;;7.00;2.72;;;;;;;16.56;30.42;101343.50;18301715;32;20102;-66
2022/03/26 22:37:19;;;;;;;8.43;3.12;;;;;;;16.88;30.19;101346.59;18301757;32;20109;-66
2022/03/26 22:47:25;;;;;;;6.65;3.03;;;;;;;16.68;30.52;101347.72;18296455;32;20388;-66
2022/03/26 22:57:30;;;;;;;5.97;2.90;;;;;;;16.55;30.72;101361.97;18296747;32;20133;-66
2022/03/26 23:07:33;;;;;;;9.40;2.95;;;;;;;16.77;30.23;101363.44;18307753;32;20111;-66
2022/03/26 23:17:38;;;;;;;9.75;3.20;;;;;;;16.69;30.19;101375.81;18307222;32;20102;-65
2022/03/26 23:27:42;;;;;;;10.88;3.95;;;;;;;16.21;31.15;101379.87;18305979;32;20438;-65
2022/03/26 23:37:47;;;;;;;8.57;3.58;;;;;;;15.58;32.39;101394.44;18305722;32;20112;-65
2022/03/26 23:48:10;;;;;;;4.28;2.28;;;;;;;14.62;34.08;101402.78;18306625;32;20111;-65
2022/03/26 23:58:15;;;;;;;8.10;3.08;;;;;;;13.86;35.88;101395.87;18304847;32;20090;-65
